Terminal Aerodrome Forecast
Issued by NWS

Home | Current Version | Previous Version | Text Only | Print | Product List | Glossary Off
Versions: 1 2 3 4 5 6 7 8 9 10 11 12 13 14

000
FTUS42 KTBW 022328
TAFPIE
TAF
KPIE 022328Z 0300/0324 29006KT P6SM FEW035 SCT250
     FM030200 VRB03KT P6SM SCT250
     FM031600 26007KT P6SM FEW020 SCT250
     FM032000 30006KT P6SM SCT030 SCT250=

USA.gov is the U.S. government's official web portal to all federal, state and local government web resources and services.